Time;durP1;ratioP1;P1;durP2;ratioP2;P2;SDS_P1;SDS_P2;PMS_P1;PMS_P2;Temp;Humidity;BMP_temperature;BMP_pressure;BME280_temperature;BME280_humidity;BME280_pressure;Samples;Min_cycle;Max_cycle;Signal;HPM_P1;HPM_P2
2023/11/22 00:01:22;;;;;;;1.45;0.70;;;9.10;95.80;;;;;;5070337;28;20032;-75
2023/11/22 00:03:48;;;;;;;1.00;0.60;;;8.60;96.60;;;;;;5072954;28;20055;-74
2023/11/22 00:06:13;;;;;;;2.30;1.08;;;8.30;96.60;;;;;;5072110;28;20137;-75
2023/11/22 00:08:39;;;;;;;2.35;1.00;;;8.90;95.80;;;;;;5071439;28;20028;-75
2023/11/22 00:11:05;;;;;;;2.13;1.05;;;9.00;95.60;;;;;;5075114;28;20028;-75
2023/11/22 00:13:32;;;;;;;2.17;0.80;;;8.80;96.20;;;;;;5073287;28;20028;-75
2023/11/22 00:15:57;;;;;;;2.15;0.80;;;8.50;96.30;;;;;;5072851;28;20024;-75
2023/11/22 00:18:24;;;;;;;2.15;0.90;;;8.20;96.80;;;;;;5076487;28;20047;-75
2023/11/22 00:20:50;;;;;;;1.98;0.95;;;8.50;96.50;;;;;;5074974;28;20082;-75
2023/11/22 00:23:16;;;;;;;1.48;0.77;;;8.70;96.10;;;;;;5073038;28;20111;-75
2023/11/22 00:25:41;;;;;;;3.42;0.90;;;9.10;95.40;;;;;;5076497;28;20043;-75
2023/11/22 00:28:07;;;;;;;1.88;0.75;;;9.40;95.00;;;;;;5074893;28;20032;-75
2023/11/22 00:30:33;;;;;;;1.33;0.65;;;9.30;95.20;;;;;;5075651;28;20064;-75
2023/11/22 00:32:59;;;;;;;1.63;0.80;;;9.20;95.50;;;;;;5076212;28;20032;-75
2023/11/22 00:35:24;;;;;;;2.00;0.80;;;9.30;95.10;;;;;;5075462;28;20591;-75
2023/11/22 00:37:50;;;;;;;1.95;0.95;;;9.00;95.50;;;;;;5075511;28;20038;-75
2023/11/22 00:40:16;;;;;;;1.75;0.70;;;8.90;95.80;;;;;;5076322;28;20040;-75
2023/11/22 00:42:42;;;;;;;1.25;0.50;;;8.70;96.30;;;;;;5074128;28;20047;-75
2023/11/22 00:45:09;;;;;;;1.25;0.60;;;8.60;96.20;;;;;;5075101;28;20050;-75
2023/11/22 00:47:35;;;;;;;1.40;0.50;;;8.60;96.20;;;;;;5076669;28;20035;-75
2023/11/22 00:50:03;;;;;;;1.20;0.40;;;8.40;96.40;;;;;;5075004;28;20040;-75
2023/11/22 00:52:29;;;;;;;1.65;0.40;;;8.70;95.90;;;;;;5074548;28;20027;-75
2023/11/22 00:54:54;;;;;;;0.45;0.30;;;8.40;96.30;;;;;;5076223;28;20024;-75
2023/11/22 00:57:20;;;;;;;1.55;0.65;;;8.50;96.40;;;;;;5076285;28;20040;-75
2023/11/22 00:59:46;;;;;;;0.88;0.40;;;8.20;96.90;;;;;;5074783;28;20044;-75
2023/11/22 01:02:11;;;;;;;1.10;0.57;;;8.70;95.80;;;;;;5074218;28;20101;-75
2023/11/22 01:04:37;;;;;;;0.65;0.30;;;8.70;95.80;;;;;;5075682;28;20115;-75
2023/11/22 01:07:09;;;;;;;0.30;0.30;;;8.50;96.30;;;;;;5073592;28;20029;-75
2023/11/22 01:09:35;;;;;;;0.75;0.40;;;8.40;96.50;;;;;;5074677;28;20030;-75
2023/11/22 01:12:01;;;;;;;2.22;1.08;;;8.50;96.20;;;;;;5075273;28;20393;-75
2023/11/22 01:14:27;;;;;;;1.92;0.80;;;8.70;95.80;;;;;;5073725;28;20039;-75
2023/11/22 01:16:56;;;;;;;1.60;0.77;;;8.60;96.10;;;;;;5073738;28;20031;-75
2023/11/22 01:19:22;;;;;;;0.60;0.32;;;8.50;96.10;;;;;;5075281;28;20052;-75
2023/11/22 01:21:47;;;;;;;1.27;0.65;;;8.40;96.40;;;;;;5074273;28;20031;-74
2023/11/22 01:24:13;;;;;;;2.83;0.77;;;8.60;96.00;;;;;;5073157;28;20042;-75
2023/11/22 01:26:39;;;;;;;2.30;0.60;;;8.60;96.10;;;;;;5075496;28;20032;-75
2023/11/22 01:29:05;;;;;;;1.58;0.65;;;8.40;96.20;;;;;;5073157;28;20035;-75
2023/11/22 01:31:32;;;;;;;1.90;0.88;;;8.30;96.80;;;;;;5073502;28;20043;-75
2023/11/22 01:33:58;;;;;;;1.65;0.70;;;8.00;96.90;;;;;;5074473;28;20036;-75
2023/11/22 01:36:25;;;;;;;1.35;0.57;;;8.30;96.20;;;;;;5074550;28;20717;-75
2023/11/22 01:38:52;;;;;;;1.25;0.30;;;8.60;95.90;;;;;;5074352;28;20432;-75
2023/11/22 01:41:18;;;;;;;0.73;0.40;;;8.50;96.10;;;;;;5074940;28;20040;-75
2023/11/22 01:43:43;;;;;;;1.92;0.40;;;8.30;96.30;;;;;;5074347;28;20490;-75
2023/11/22 01:46:19;;;;;;;1.38;0.50;;;8.00;97.20;;;;;;5073465;28;20036;-74
2023/11/22 01:48:45;;;;;;;1.08;0.40;;;7.90;97.10;;;;;;5074461;28;20131;-74
2023/11/22 01:51:10;;;;;;;1.10;0.52;;;8.20;96.10;;;;;;5074766;28;20036;-75
2023/11/22 01:53:36;;;;;;;2.15;0.40;;;8.40;96.10;;;;;;5073600;28;20032;-74
2023/11/22 01:56:02;;;;;;;1.23;0.35;;;8.20;96.30;;;;;;5073717;28;20097;-75
2023/11/22 01:58:28;;;;;;;0.43;0.30;;;8.00;96.50;;;;;;5073266;28;20036;-75
2023/11/22 02:00:54;;;;;;;0.20;0.20;;;8.10;96.10;;;;;;5073257;28;20047;-75
2023/11/22 02:03:20;;;;;;;1.38;0.50;;;8.30;96.20;;;;;;5072747;28;20701;-75
2023/11/22 02:05:46;;;;;;;0.80;0.70;;;8.50;95.90;;;;;;5074602;28;20031;-74
2023/11/22 02:08:13;;;;;;;2.85;0.82;;;8.50;95.90;;;;;;5073248;28;20854;-74
2023/11/22 02:10:39;;;;;;;1.35;0.50;;;8.50;96.00;;;;;;5073609;28;20044;-75
2023/11/22 02:13:08;;;;;;;1.77;0.52;;;8.50;96.10;;;;;;5072975;28;20035;-75
2023/11/22 02:15:34;;;;;;;1.25;0.32;;;8.70;95.60;;;;;;5073785;28;20161;-75
2023/11/22 02:18:01;;;;;;;0.68;0.30;;;8.90;94.90;;;;;;5075321;28;20497;-74
2023/11/22 02:20:27;;;;;;;1.13;0.50;;;9.30;94.70;;;;;;5072454;28;20074;-75
2023/11/22 02:22:53;;;;;;;0.40;0.20;;;8.90;95.20;;;;;;5071824;28;20028;-75
2023/11/22 02:25:19;;;;;;;0.47;0.20;;;8.60;95.70;;;;;;5074754;28;20024;-75
2023/11/22 02:27:45;;;;;;;0.90;0.38;;;8.70;95.50;;;;;;5073204;28;20081;-75
2023/11/22 02:30:11;;;;;;;0.77;0.13;;;8.70;95.20;;;;;;5073628;28;20049;-74
2023/11/22 02:32:37;;;;;;;2.63;0.60;;;9.00;95.00;;;;;;5072708;28;20058;-75
2023/11/22 02:35:07;;;;;;;2.15;0.57;;;8.90;95.30;;;;;;5072921;28;20066;-75
2023/11/22 02:37:33;;;;;;;1.42;0.47;;;8.70;95.40;;;;;;5072954;28;20520;-75
2023/11/22 02:40:04;;;;;;;1.08;0.40;;;8.70;95.20;;;;;;5077942;28;20040;-74
2023/11/22 02:42:30;;;;;;;1.25;0.50;;;8.80;95.10;;;;;;5078114;28;20028;-75
2023/11/22 02:44:56;;;;;;;1.40;0.40;;;9.00;94.70;;;;;;5077081;28;20453;-74
2023/11/22 02:47:22;;;;;;;3.67;0.50;;;9.00;94.90;;;;;;5077411;28;20072;-74
2023/11/22 02:49:48;;;;;;;1.15;0.50;;;8.80;95.20;;;;;;5078238;28;20126;-75
2023/11/22 02:52:14;;;;;;;3.78;0.45;;;8.70;95.30;;;;;;5076804;28;21041;-75
2023/11/22 02:54:45;;;;;;;1.48;0.43;;;8.80;94.90;;;;;;5077531;28;20043;-74
2023/11/22 02:57:11;;;;;;;0.95;0.40;;;9.00;94.80;;;;;;5078836;28;20032;-75
2023/11/22 02:59:37;;;;;;;0.75;0.38;;;8.80;95.10;;;;;;5077656;28;20044;-74
2023/11/22 03:02:03;;;;;;;0.85;0.43;;;8.60;95.00;;;;;;5075869;28;20084;-75
2023/11/22 03:04:28;;;;;;;1.10;0.50;;;9.20;93.70;;;;;;5078022;28;20055;-74
2023/11/22 03:06:55;;;;;;;1.17;0.43;;;8.80;95.10;;;;;;5076891;28;20474;-75
2023/11/22 03:09:22;;;;;;;0.38;0.28;;;8.70;94.90;;;;;;5076722;28;20032;-75
2023/11/22 03:11:49;;;;;;;0.68;0.30;;;9.10;93.80;;;;;;5076899;28;20020;-75
2023/11/22 03:14:15;;;;;;;0.73;0.28;;;9.10;93.90;;;;;;5076999;28;20094;-74
2023/11/22 03:16:42;;;;;;;1.38;0.63;;;9.30;93.80;;;;;;5077526;28;20032;-74
2023/11/22 03:19:08;;;;;;;0.55;0.32;;;9.10;94.30;;;;;;5078191;28;20032;-75
2023/11/22 03:21:35;;;;;;;1.33;0.40;;;8.90;94.60;;;;;;5076593;28;20035;-74
2023/11/22 03:24:03;;;;;;;1.35;0.52;;;9.00;94.40;;;;;;5076621;28;20020;-74
2023/11/22 03:26:29;;;;;;;0.60;0.20;;;9.00;94.20;;;;;;5076264;28;20432;-74
2023/11/22 03:28:55;;;;;;;1.23;0.45;;;8.80;94.80;;;;;;5077702;28;20032;-74
2023/11/22 03:31:21;;;;;;;0.47;0.30;;;8.80;94.70;;;;;;5075191;28;20521;-74
2023/11/22 03:33:47;;;;;;;0.20;0.10;;;9.00;94.00;;;;;;5075852;28;20035;-75
2023/11/22 03:36:13;;;;;;;0.10;0.10;;;9.20;93.50;;;;;;5078348;28;20519;-75
2023/11/22 03:38:41;;;;;;;0.70;0.20;;;9.70;92.60;;;;;;5075927;28;20046;-75
2023/11/22 03:41:07;;;;;;;0.80;0.28;;;9.50;93.40;;;;;;5076153;28;20044;-74
2023/11/22 03:43:32;;;;;;;0.88;0.30;;;9.20;93.90;;;;;;5077021;28;20072;-74
2023/11/22 03:45:58;;;;;;;0.52;0.20;;;9.00;94.00;;;;;;5075830;28;20032;-75
2023/11/22 03:48:25;;;;;;;0.65;0.28;;;9.00;94.10;;;;;;5075886;28;20036;-74
2023/11/22 03:50:51;;;;;;;0.55;0.20;;;8.90;94.10;;;;;;5075500;28;20036;-74
2023/11/22 03:53:17;;;;;;;0.77;0.30;;;9.00;94.00;;;;;;5075167;28;20378;-75
2023/11/22 03:55:42;;;;;;;0.13;0.13;;;9.00;93.80;;;;;;5075726;28;20047;-74
2023/11/22 03:58:08;;;;;;;0.55;0.10;;;9.40;92.50;;;;;;5077840;28;20043;-74
2023/11/22 04:00:35;;;;;;;0.45;0.20;;;9.50;92.60;;;;;;5072688;28;20055;-74
2023/11/22 04:03:01;;;;;;;0.30;0.10;;;9.30;93.20;;;;;;5072188;28;20052;-75
2023/11/22 04:05:27;;;;;;;1.13;0.28;;;9.10;93.50;;;;;;5072913;28;20428;-74
2023/11/22 04:07:54;;;;;;;0.50;0.40;;;9.00;93.90;;;;;;5071511;28;20044;-74
2023/11/22 04:10:21;;;;;;;1.05;0.40;;;9.00;93.70;;;;;;5070535;28;20035;-75
2023/11/22 04:12:47;;;;;;;0.20;0.10;;;9.00;93.80;;;;;;5070806;28;20036;-74
2023/11/22 04:15:13;;;;;;;1.17;0.45;;;8.90;94.00;;;;;;5071515;28;20066;-75
2023/11/22 04:17:40;;;;;;;1.05;0.65;;;8.80;94.30;;;;;;5067254;28;20036;-74
2023/11/22 04:20:10;;;;;;;1.58;0.22;;;9.00;93.80;;;;;;5065913;28;20070;-74
2023/11/22 04:22:36;;;;;;;1.38;0.30;;;9.00;94.10;;;;;;5069297;28;20063;-75
2023/11/22 04:25:02;;;;;;;1.25;0.47;;;9.20;93.50;;;;;;5071023;28;20035;-74
2023/11/22 04:27:28;;;;;;;0.15;0.08;;;9.20;93.50;;;;;;5069465;28;20059;-74
2023/11/22 04:29:53;;;;;;;1.65;0.52;;;9.20;93.60;;;;;;5071549;28;20470;-74
2023/11/22 04:32:21;;;;;;;0.57;0.22;;;8.90;94.10;;;;;;5070350;28;20917;-74
2023/11/22 04:34:47;;;;;;;0.30;0.10;;;8.70;94.20;;;;;;5071262;28;20093;-74
2023/11/22 04:37:13;;;;;;;1.45;0.30;;;8.70;94.40;;;;;;5072462;28;20402;-74
2023/11/22 04:39:39;;;;;;;0.60;0.28;;;8.70;94.20;;;;;;5069778;28;20040;-74
2023/11/22 04:42:05;;;;;;;0.35;0.20;;;8.70;94.00;;;;;;5071874;28;20890;-74
2023/11/22 04:44:32;;;;;;;1.65;0.20;;;8.60;94.20;;;;;;5072073;28;20040;-74
2023/11/22 04:46:59;;;;;;;0.13;0.10;;;8.50;94.50;;;;;;5071634;28;20485;-74
2023/11/22 04:49:25;;;;;;;0.75;0.20;;;8.40;94.60;;;;;;5071212;28;20032;-74
2023/11/22 04:51:51;;;;;;;0.52;0.17;;;8.50;94.20;;;;;;5071019;28;20036;-74
2023/11/22 04:54:17;;;;;;;0.50;0.20;;;8.40;94.10;;;;;;5070550;28;20035;-74
2023/11/22 04:56:43;;;;;;;0.65;0.40;;;8.50;94.20;;;;;;5071134;28;20047;-74
2023/11/22 04:59:08;;;;;;;0.20;0.10;;;8.60;93.80;;;;;;5069572;28;20506;-74
2023/11/22 05:01:35;;;;;;;0.45;0.28;;;8.70;93.40;;;;;;5065678;28;20040;-74
2023/11/22 05:04:01;;;;;;;0.15;0.13;;;9.00;93.10;;;;;;5066529;28;20666;-74
2023/11/22 05:06:28;;;;;;;0.40;0.20;;;9.10;93.30;;;;;;5068571;28;20039;-74
2023/11/22 05:08:54;;;;;;;0.43;0.10;;;9.30;92.50;;;;;;5068685;28;20667;-74
2023/11/22 05:11:21;;;;;;;0.00;0.00;;;9.60;92.60;;;;;;5066916;28;20138;-74
2023/11/22 05:13:46;;;;;;;0.45;0.20;;;9.30;93.20;;;;;;5068629;28;20032;-74
2023/11/22 05:16:12;;;;;;;0.22;0.10;;;9.10;93.00;;;;;;5068583;28;20040;-74
2023/11/22 05:18:38;;;;;;;0.05;0.00;;;9.10;92.90;;;;;;5066905;28;20040;-74
2023/11/22 05:21:04;;;;;;;0.00;0.00;;;9.20;92.50;;;;;;5067797;28;20097;-74
2023/11/22 05:23:32;;;;;;;0.75;0.22;;;9.10;93.20;;;;;;5065908;28;20028;-74
2023/11/22 05:25:59;;;;;;;0.45;0.10;;;8.90;93.60;;;;;;5066861;28;20035;-74
2023/11/22 05:28:25;;;;;;;0.20;0.00;;;9.00;93.00;;;;;;5068524;28;20086;-74
2023/11/22 05:30:51;;;;;;;0.17;0.10;;;9.10;92.60;;;;;;5064102;28;20032;-74
2023/11/22 05:33:16;;;;;;;0.60;0.30;;;9.30;92.60;;;;;;5065039;28;20024;-74
2023/11/22 05:35:42;;;;;;;0.50;0.15;;;9.50;92.30;;;;;;5068156;28;20043;-74
2023/11/22 05:38:08;;;;;;;0.28;0.10;;;9.50;92.40;;;;;;5066009;28;22074;-74
2023/11/22 05:40:34;;;;;;;0.30;0.10;;;9.80;91.90;;;;;;5065237;28;20052;-74
2023/11/22 05:42:59;;;;;;;3.60;0.57;;;9.40;92.70;;;;;;5064860;28;20028;-74
2023/11/22 05:45:25;;;;;;;0.00;0.00;;;9.20;92.50;;;;;;5067166;28;20370;-74
2023/11/22 05:47:51;;;;;;;0.10;0.00;;;9.10;92.80;;;;;;5067710;28;20523;-74
2023/11/22 05:50:17;;;;;;;0.30;0.20;;;9.60;91.80;;;;;;5065332;28;20027;-74
2023/11/22 05:52:44;;;;;;;0.28;0.10;;;9.50;92.40;;;;;;5066026;28;20029;-74
2023/11/22 05:55:12;;;;;;;0.20;0.10;;;9.50;92.10;;;;;;5066123;28;20122;-74
2023/11/22 05:57:40;;;;;;;0.13;0.03;;;9.70;91.90;;;;;;5068438;28;20032;-74
2023/11/22 06:00:07;;;;;;;0.03;0.03;;;9.60;91.90;;;;;;5066501;28;20050;-74
2023/11/22 06:02:32;;;;;;;0.28;0.20;;;9.50;92.30;;;;;;5067064;28;20123;-74
2023/11/22 06:04:58;;;;;;;0.90;0.38;;;9.30;92.40;;;;;;5067304;28;20117;-74
2023/11/22 06:07:24;;;;;;;1.02;0.40;;;9.30;92.60;;;;;;5067121;28;20034;-74
2023/11/22 06:09:49;;;;;;;0.00;0.00;;;9.10;92.80;;;;;;5067183;28;20071;-74
2023/11/22 06:12:15;;;;;;;0.57;0.35;;;9.10;92.60;;;;;;5067866;28;20096;-74
2023/11/22 06:14:41;;;;;;;0.20;0.13;;;9.10;92.90;;;;;;5065669;28;20036;-74
2023/11/22 06:17:07;;;;;;;0.40;0.25;;;9.10;93.20;;;;;;5065303;28;20825;-76
2023/11/22 06:19:33;;;;;;;0.85;0.30;;;9.10;92.70;;;;;;5070100;28;20048;-76
2023/11/22 06:21:58;;;;;;;0.85;0.52;;;9.20;93.10;;;;;;5065868;28;20035;-75
2023/11/22 06:24:25;;;;;;;1.33;0.40;;;9.00;93.10;;;;;;5067098;28;20473;-76
2023/11/22 06:26:51;;;;;;;0.93;0.43;;;9.20;92.80;;;;;;5067609;28;20035;-77
2023/11/22 06:29:17;;;;;;;0.75;0.45;;;9.10;93.20;;;;;;5065239;28;20031;-76
2023/11/22 06:31:43;;;;;;;1.55;0.60;;;9.20;92.70;;;;;;5064525;28;20111;-77
2023/11/22 06:34:08;;;;;;;0.65;0.30;;;9.10;93.20;;;;;;5067550;28;20036;-77
2023/11/22 06:36:34;;;;;;;0.35;0.30;;;9.00;93.10;;;;;;5066614;28;20036;-76
2023/11/22 06:39:00;;;;;;;2.13;0.50;;;9.00;93.20;;;;;;5066401;28;20035;-77
2023/11/22 06:41:26;;;;;;;0.38;0.20;;;9.10;93.00;;;;;;5068019;28;20035;-76
2023/11/22 06:43:52;;;;;;;5.03;2.08;;;9.20;92.70;;;;;;5066297;28;20043;-77
2023/11/22 06:46:18;;;;;;;4.55;1.90;;;9.30;92.30;;;;;;5066522;28;20398;-76
2023/11/22 06:48:44;;;;;;;2.80;1.13;;;9.40;92.40;;;;;;5067485;28;20151;-77
2023/11/22 06:51:10;;;;;;;4.00;1.70;;;9.10;92.90;;;;;;5065489;28;20036;-76
2023/11/22 06:53:35;;;;;;;3.75;1.52;;;9.10;92.60;;;;;;5066831;28;20032;-77
2023/11/22 06:56:01;;;;;;;0.75;0.30;;;9.20;92.70;;;;;;5067268;28;20150;-77
2023/11/22 06:58:27;;;;;;;0.38;0.20;;;9.30;92.30;;;;;;5066181;28;20486;-76
2023/11/22 07:00:54;;;;;;;0.85;0.30;;;9.50;91.70;;;;;;5065886;28;20048;-76
2023/11/22 07:03:21;;;;;;;0.50;0.20;;;10.20;90.90;;;;;;5067184;28;20067;-76
2023/11/22 07:05:47;;;;;;;1.48;0.40;;;9.90;92.20;;;;;;5066766;28;20047;-77
2023/11/22 07:08:12;;;;;;;1.08;0.38;;;9.50;92.40;;;;;;5066170;28;20896;-77
2023/11/22 07:10:39;;;;;;;3.03;0.60;;;9.50;92.30;;;;;;5067430;28;20063;-77
2023/11/22 07:13:05;;;;;;;0.93;0.38;;;9.40;92.70;;;;;;5065836;28;20040;-77
2023/11/22 07:15:30;;;;;;;2.50;0.50;;;9.20;93.10;;;;;;5065809;28;20036;-76
2023/11/22 07:17:56;;;;;;;3.20;1.30;;;9.00;93.60;;;;;;5067054;28;20128;-77
2023/11/22 07:20:23;;;;;;;1.35;0.45;;;8.70;94.30;;;;;;5069037;28;20059;-76
2023/11/22 07:22:54;;;;;;;0.43;0.30;;;8.70;93.70;;;;;;5064255;28;20024;-75
2023/11/22 07:25:24;;;;;;;1.15;0.47;;;8.80;93.30;;;;;;5069016;28;20481;-76
2023/11/22 07:27:51;;;;;;;2.20;0.20;;;8.70;94.10;;;;;;5070072;28;20101;-76
2023/11/22 07:30:19;;;;;;;2.00;0.40;;;9.00;93.00;;;;;;5067622;28;21189;-75
2023/11/22 07:32:45;;;;;;;6.00;0.38;;;9.00;93.30;;;;;;5070035;28;20036;-77
2023/11/22 07:35:12;;;;;;;1.95;0.25;;;9.10;93.30;;;;;;5070885;28;20438;-77
2023/11/22 07:37:42;;;;;;;0.88;0.30;;;9.10;93.00;;;;;;5069516;28;20097;-75
2023/11/22 07:40:09;;;;;;;44.97;23.05;;;9.40;92.80;;;;;;5069797;28;20040;-76
2023/11/22 07:42:36;;;;;;;8.00;3.85;;;9.20;92.90;;;;;;5069339;28;20035;-76
2023/11/22 07:45:02;;;;;;;1.55;0.70;;;9.50;92.60;;;;;;5069823;28;20043;-76
2023/11/22 07:47:28;;;;;;;2.75;0.40;;;9.60;92.70;;;;;;5069638;28;20795;-76
2023/11/22 07:49:55;;;;;;;1.48;0.50;;;9.60;92.60;;;;;;5070507;28;20398;-75
2023/11/22 07:52:21;;;;;;;3.20;0.60;;;9.30;93.10;;;;;;5070392;28;20423;-75
2023/11/22 07:54:47;;;;;;;0.38;0.20;;;9.40;92.80;;;;;;5068258;28;20067;-76
2023/11/22 07:57:14;;;;;;;0.60;0.17;;;9.70;92.20;;;;;;5068908;28;20146;-76
2023/11/22 07:59:40;;;;;;;0.88;0.20;;;10.30;90.90;;;;;;5069961;28;20067;-75
2023/11/22 08:02:11;;;;;;;2.35;0.13;;;10.50;91.50;;;;;;5068928;28;20063;-76
2023/11/22 08:04:37;;;;;;;1.98;0.10;;;10.70;90.40;;;;;;5070092;28;20148;-77
2023/11/22 08:07:04;;;;;;;0.77;0.13;;;10.90;90.30;;;;;;5070549;28;20032;-78
2023/11/22 08:09:33;;;;;;;0.38;0.10;;;11.00;90.00;;;;;;5071248;28;20028;-77
2023/11/22 08:12:02;;;;;;;0.65;0.20;;;10.50;91.30;;;;;;5069384;28;20139;-76
2023/11/22 08:14:28;;;;;;;0.35;0.15;;;10.20;92.10;;;;;;5069600;28;20020;-76
2023/11/22 08:16:54;;;;;;;1.33;0.52;;;10.20;91.60;;;;;;5069954;28;20071;-76
2023/11/22 08:19:23;;;;;;;0.50;0.20;;;10.20;91.60;;;;;;5067376;28;20059;-76
2023/11/22 08:21:49;;;;;;;4.88;0.43;;;10.20;91.70;;;;;;5069502;28;20039;-75
2023/11/22 08:24:15;;;;;;;0.68;0.30;;;10.20;91.60;;;;;;5070245;28;20032;-76
2023/11/22 08:26:40;;;;;;;0.88;0.57;;;9.90;92.20;;;;;;5067727;28;20024;-74
2023/11/22 08:29:11;;;;;;;0.63;0.38;;;9.90;92.40;;;;;;5068951;28;20067;-74
2023/11/22 08:31:37;;;;;;;0.98;0.30;;;9.90;92.10;;;;;;5069589;28;20204;-75
2023/11/22 08:34:06;;;;;;;1.02;0.50;;;9.80;92.30;;;;;;5069166;28;20296;-75
2023/11/22 08:36:35;;;;;;;0.10;0.10;;;10.40;91.50;;;;;;5065630;28;20032;-74
2023/11/22 08:39:03;;;;;;;0.73;0.10;;;11.00;90.70;;;;;;5067992;28;20032;-75
2023/11/22 08:41:30;;;;;;;0.98;0.38;;;11.00;90.50;;;;;;5069997;28;20044;-75
2023/11/22 08:43:56;;;;;;;1.63;0.47;;;10.40;92.00;;;;;;5067778;28;21002;-75
2023/11/22 08:46:23;;;;;;;0.95;0.30;;;10.30;91.50;;;;;;5068140;28;20036;-76
2023/11/22 08:48:50;;;;;;;1.60;0.57;;;10.60;91.10;;;;;;5069280;28;20163;-74
2023/11/22 08:51:17;;;;;;;1.80;0.43;;;10.50;91.90;;;;;;5068630;28;20036;-74
2023/11/22 08:53:46;;;;;;;1.83;0.60;;;10.40;91.90;;;;;;5068172;28;20241;-75
2023/11/22 08:56:12;;;;;;;2.78;1.00;;;10.30;91.90;;;;;;5064366;28;20066;-75
2023/11/22 08:58:39;;;;;;;0.98;0.40;;;10.40;91.70;;;;;;5065844;28;20122;-75
2023/11/22 09:01:06;;;;;;;0.70;0.30;;;10.40;91.00;;;;;;5066190;28;20765;-76
2023/11/22 09:03:32;;;;;;;0.30;0.30;;;10.50;91.40;;;;;;5067786;28;21005;-76
2023/11/22 09:05:58;;;;;;;0.63;0.20;;;10.60;91.60;;;;;;5066289;28;20034;-76
2023/11/22 09:08:24;;;;;;;1.00;0.30;;;10.70;90.80;;;;;;5065840;28;20059;-75
2023/11/22 09:10:50;;;;;;;0.88;0.28;;;10.60;91.60;;;;;;5067572;28;20143;-75
2023/11/22 09:13:16;;;;;;;0.65;0.30;;;10.60;91.40;;;;;;5066511;28;20478;-75
2023/11/22 09:15:44;;;;;;;0.90;0.30;;;10.70;91.20;;;;;;5067365;28;20032;-76
2023/11/22 09:18:12;;;;;;;0.47;0.30;;;10.80;91.20;;;;;;5068239;28;20812;-76
2023/11/22 09:20:38;;;;;;;0.80;0.40;;;10.90;91.00;;;;;;5068736;28;20040;-75
2023/11/22 09:23:04;;;;;;;0.73;0.25;;;10.90;91.30;;;;;;5067460;28;20058;-75
2023/11/22 09:25:33;;;;;;;2.22;0.30;;;11.00;90.70;;;;;;5067419;28;20130;-75
2023/11/22 09:27:59;;;;;;;1.48;0.40;;;11.00;91.10;;;;;;5068293;28;20035;-75
2023/11/22 09:30:35;;;;;;;1.83;0.80;;;10.80;91.70;;;;;;5066202;28;20040;-75
2023/11/22 09:33:05;;;;;;;1.95;0.70;;;10.70;91.60;;;;;;5067044;28;20043;-75
2023/11/22 09:35:32;;;;;;;0.75;0.43;;;10.60;92.00;;;;;;5066083;28;20173;-75
2023/11/22 09:37:59;;;;;;;0.60;0.22;;;10.70;91.30;;;;;;5066556;28;20031;-76
2023/11/22 09:40:28;;;;;;;0.35;0.13;;;11.50;90.10;;;;;;5066261;28;20784;-75
2023/11/22 09:43:03;;;;;;;1.05;0.20;;;11.60;90.40;;;;;;5061880;28;20032;-75
2023/11/22 09:45:30;;;;;;;1.20;0.22;;;11.50;90.70;;;;;;5064176;28;20031;-75
2023/11/22 09:47:56;;;;;;;3.20;0.45;;;11.70;90.00;;;;;;5065312;28;20090;-76
2023/11/22 09:50:59;;;;;;;2.75;0.30;;;11.70;90.40;;;;;;5062490;28;21394;-77
2023/11/22 09:53:42;;;;;;;0.88;0.25;;;11.60;90.30;;;;;;5059893;28;20127;-74
2023/11/22 09:56:09;;;;;;;0.60;0.20;;;11.80;90.10;;;;;;5060435;28;20057;-75
2023/11/22 09:58:39;;;;;;;6.35;3.67;;;11.70;90.30;;;;;;5064016;28;20039;-75
2023/11/22 10:01:07;;;;;;;3.72;1.27;;;11.50;90.30;;;;;;5068027;28;20050;-75
2023/11/22 10:03:33;;;;;;;1.92;0.90;;;11.40;90.60;;;;;;5065940;28;20720;-78
2023/11/22 10:05:59;;;;;;;1.52;0.10;;;11.50;90.50;;;;;;5065900;28;20103;-76
2023/11/22 10:08:31;;;;;;;0.90;0.50;;;12.00;89.10;;;;;;5063985;28;20335;-77
2023/11/22 10:10:57;;;;;;;0.70;0.30;;;12.00;89.90;;;;;;5068720;28;20044;-78
2023/11/22 10:13:23;;;;;;;1.55;0.82;;;11.90;90.30;;;;;;5066202;28;20035;-76
2023/11/22 10:15:50;;;;;;;1.42;0.38;;;12.00;89.10;;;;;;5065890;28;20190;-76
2023/11/22 10:18:17;;;;;;;0.70;0.30;;;12.30;89.70;;;;;;5065403;28;20062;-76
2023/11/22 10:20:46;;;;;;;1.20;0.20;;;12.50;88.50;;;;;;5062873;28;20062;-77
2023/11/22 10:23:14;;;;;;;1.00;0.32;;;12.80;87.60;;;;;;5065043;28;20114;-78
2023/11/22 10:25:49;;;;;;;1.08;0.25;;;13.00;88.60;;;;;;5064568;28;20043;-77
2023/11/22 10:28:17;;;;;;;1.13;0.32;;;12.90;87.60;;;;;;5065575;28;20039;-76
2023/11/22 10:30:47;;;;;;;0.55;0.13;;;12.90;89.10;;;;;;5064994;28;20032;-77
2023/11/22 10:33:15;;;;;;;0.73;0.40;;;13.00;87.20;;;;;;5063955;28;20032;-76
2023/11/22 10:35:44;;;;;;;0.77;0.20;;;13.20;86.20;;;;;;5064985;28;20036;-78
2023/11/22 10:38:13;;;;;;;0.47;0.20;;;13.40;86.30;;;;;;5064388;28;20661;-76
2023/11/22 10:40:38;;;;;;;0.30;0.10;;;13.30;85.40;;;;;;5066023;28;21778;-77
2023/11/22 10:43:07;;;;;;;0.20;0.10;;;13.30;86.10;;;;;;5063294;28;20054;-77
2023/11/22 10:45:33;;;;;;;0.28;0.15;;;13.30;85.30;;;;;;5066888;28;20131;-77
2023/11/22 10:48:00;;;;;;;13.65;6.57;;;13.50;85.30;;;;;;5066248;28;20040;-77
2023/11/22 10:50:28;;;;;;;3.40;1.00;;;13.80;85.10;;;;;;5067525;28;20036;-77
2023/11/22 10:52:56;;;;;;;1.35;0.40;;;13.70;85.50;;;;;;5065909;28;20036;-77
2023/11/22 10:55:26;;;;;;;1.02;0.50;;;13.80;84.90;;;;;;5064900;28;20040;-76
2023/11/22 10:57:56;;;;;;;16.55;8.05;;;13.80;83.60;;;;;;5066027;28;20490;-77
2023/11/22 11:00:24;;;;;;;0.40;0.20;;;14.00;84.40;;;;;;5069838;28;20453;-76
2023/11/22 11:03:02;;;;;;;0.65;0.20;;;14.10;83.10;;;;;;5069966;28;20046;-77
2023/11/22 11:05:31;;;;;;;0.50;0.20;;;14.00;84.20;;;;;;5069700;28;20032;-77
2023/11/22 11:08:11;;;;;;;2.05;0.10;;;14.10;83.60;;;;;;5067947;28;20515;-77
2023/11/22 11:10:43;;;;;;;7.57;0.63;;;14.10;82.70;;;;;;5070364;28;20107;-78
2023/11/22 11:13:10;;;;;;;3.30;0.25;;;14.30;81.00;;;;;;5072090;28;20431;-77
2023/11/22 11:15:41;;;;;;;0.10;0.10;;;14.30;81.70;;;;;;5071141;28;20028;-76
2023/11/22 11:18:10;;;;;;;0.55;0.08;;;14.20;80.90;;;;;;5071188;28;20556;-77
2023/11/22 11:20:53;;;;;;;1.20;0.20;;;14.30;81.00;;;;;;5069402;28;20078;-76
2023/11/22 11:23:24;;;;;;;0.55;0.28;;;14.50;81.10;;;;;;5068641;28;20044;-77
2023/11/22 11:25:53;;;;;;;4.13;1.83;;;14.60;80.80;;;;;;5069912;28;20036;-77
2023/11/22 11:28:19;;;;;;;0.28;0.03;;;14.60;80.80;;;;;;5070651;28;20035;-77
2023/11/22 11:30:49;;;;;;;0.17;0.00;;;14.50;80.60;;;;;;5069031;28;20378;-77
2023/11/22 11:33:34;;;;;;;2.03;0.70;;;14.50;80.70;;;;;;5069159;28;20441;-77
2023/11/22 11:36:03;;;;;;;;;;;14.60;80.30;;;;;;5069276;28;20040;-77
2023/11/22 11:38:35;;;;;;;0.22;0.00;;;14.70;80.20;;;;;;5070997;28;19940;-77
2023/11/22 11:41:11;;;;;;;0.43;0.10;;;14.90;79.20;;;;;;5070573;28;20089;-77
2023/11/22 11:43:42;;;;;;;0.43;0.17;;;14.90;77.90;;;;;;5070192;28;20380;-77
2023/11/22 11:46:09;;;;;;;1.85;0.10;;;14.80;78.90;;;;;;5068625;28;20062;-76
2023/11/22 11:48:35;;;;;;;0.03;0.03;;;15.00;78.90;;;;;;5067855;28;20032;-77
2023/11/22 11:51:01;;;;;;;0.10;0.00;;;14.90;78.70;;;;;;5070866;28;20462;-77
2023/11/22 11:53:27;;;;;;;0.35;0.10;;;14.90;78.60;;;;;;5070048;28;20100;-77
2023/11/22 11:55:54;;;;;;;0.52;0.13;;;14.90;78.00;;;;;;5068814;28;20020;-78
2023/11/22 11:58:20;;;;;;;0.82;0.40;;;14.90;78.20;;;;;;5069822;28;20036;-77
2023/11/22 12:00:45;;;;;;;0.32;0.17;;;14.80;78.70;;;;;;5068722;28;20040;-77
2023/11/22 12:03:11;;;;;;;0.98;0.65;;;14.90;78.70;;;;;;5069122;28;20071;-77
2023/11/22 12:05:38;;;;;;;2.38;0.40;;;15.20;78.50;;;;;;5069942;28;20053;-77
2023/11/22 12:08:04;;;;;;;0.00;0.00;;;15.20;76.90;;;;;;5068212;28;20028;-78
2023/11/22 12:10:30;;;;;;;0.30;0.20;;;15.20;76.30;;;;;;5068181;28;21315;-77
2023/11/22 12:12:56;;;;;;;0.52;0.10;;;15.10;77.40;;;;;;5069303;28;20101;-78
2023/11/22 12:15:22;;;;;;;0.00;0.00;;;15.10;77.40;;;;;;5068279;28;20534;-79
2023/11/22 12:17:54;;;;;;;0.52;0.10;;;15.30;77.30;;;;;;5069007;28;20081;-80
2023/11/22 12:20:21;;;;;;;0.55;0.20;;;15.40;77.50;;;;;;5069302;28;20865;-77
2023/11/22 12:22:48;;;;;;;0.55;0.15;;;15.30;76.00;;;;;;5068954;28;20523;-77
2023/11/22 12:25:14;;;;;;;1.50;0.10;;;15.20;77.50;;;;;;5068640;28;20093;-78
2023/11/22 12:27:45;;;;;;;0.55;0.20;;;15.30;77.40;;;;;;5069485;28;20698;-76
2023/11/22 12:30:29;;;;;;;0.17;0.10;;;15.40;77.40;;;;;;5068237;28;20499;-77
2023/11/22 12:32:55;;;;;;;0.50;0.17;;;15.40;75.80;;;;;;5069204;28;20446;-78
2023/11/22 12:35:23;;;;;;;2.30;0.20;;;15.40;76.60;;;;;;5070696;28;20042;-77
2023/11/22 12:37:48;;;;;;;0.45;0.00;;;15.30;76.30;;;;;;5071580;28;20025;-82
2023/11/22 12:40:17;;;;;;;0.20;0.00;;;15.40;76.10;;;;;;5071453;28;20047;-78
2023/11/22 12:42:53;;;;;;;0.20;0.03;;;15.50;75.60;;;;;;5069749;28;20040;-77
2023/11/22 12:45:20;;;;;;;0.73;0.10;;;15.30;75.80;;;;;;5067537;28;20729;-77
2023/11/22 12:47:47;;;;;;;0.22;0.00;;;15.30;76.10;;;;;;5068707;28;20047;-78
2023/11/22 12:50:33;;;;;;;0.50;0.20;;;15.40;76.40;;;;;;5069284;28;20545;-77
2023/11/22 12:53:07;;;;;;;0.35;0.00;;;15.30;75.90;;;;;;5068528;28;20032;-77